Time;durP1;ratioP1;P1;durP2;ratioP2;P2;SDS_P1;SDS_P2;PMS_P1;PMS_P2;Temp;Humidity;BMP_temperature;BMP_pressure;BME280_temperature;BME280_humidity;BME280_pressure;Samples;Min_cycle;Max_cycle;Signal;HPM_P1;HPM_P2
2023/01/28 00:00:45;;;;;;;;;;;;;;;;;;4978190;28;20005;-27
2023/01/28 00:03:11;;;;;;;;;;;;;;;;;;4977953;28;20024;-28
2023/01/28 00:05:36;;;;;;;;;;;;;;;;;;4978375;28;19918;-27
2023/01/28 00:08:02;;;;;;;;;;;;;;;;;;4977042;28;20309;-26
2023/01/28 00:10:29;;;;;;;;;;;;;;;;;;4978349;28;20342;-29
2023/01/28 00:12:54;;;;;;;;;;;;;;;;;;4977933;28;20005;-25
2023/01/28 00:15:21;;;;;;;;;;;;;;;;;;4978024;28;19956;-29
2023/01/28 00:17:47;;;;;;;;;;;;;;;;;;4977935;28;19914;-31
2023/01/28 00:20:13;;;;;;;;;;;;;;;;;;4977428;28;20008;-26
2023/01/28 00:22:39;;;;;;;;;;;;;;;;;;4977982;28;19955;-28
2023/01/28 00:25:05;;;;;;;;;;;;;;;;;;4978038;28;20226;-28
2023/01/28 00:27:31;;;;;;;;;;;;;;;;;;4977633;28;20005;-27
2023/01/28 00:29:57;;;;;;;;;;;;;;;;;;4977924;28;19980;-28
2023/01/28 00:32:23;;;;;;;;;;;;;;;;;;4977582;28;19914;-24
2023/01/28 00:34:49;;;;;;;;;;;;;;;;;;4977578;28;19985;-26
2023/01/28 00:37:15;;;;;;;;;;;;;;;;;;4977602;28;19914;-24
2023/01/28 00:39:41;;;;;;;;;;;;;;;;;;4977504;28;19914;-29
2023/01/28 00:42:07;;;;;;;;;;;;;;;;;;4976442;28;19910;-27
2023/01/28 00:44:32;;;;;;;;;;;;;;;;;;4977373;28;20014;-30
2023/01/28 00:46:59;;;;;;;;;;;;;;;;;;4977319;28;19974;-26
2023/01/28 00:49:25;;;;;;;;;;;;;;;;;;4977287;28;19992;-26
2023/01/28 00:51:51;;;;;;;;;;;;;;;;;;4977225;28;19957;-29
2023/01/28 00:54:17;;;;;;;;;;;;;;;;;;4977588;28;19914;-30
2023/01/28 00:56:43;;;;;;;;;;;;;;;;;;4977180;28;19918;-26
2023/01/28 00:59:10;;;;;;;;;;;;;;;;;;4977099;28;19921;-27
2023/01/28 01:01:36;;;;;;;;;;;;;;;;;;4977321;28;20350;-24
2023/01/28 01:04:02;;;;;;;;;;;;;;;;;;4976802;28;19977;-24
2023/01/28 01:06:28;;;;;;;;;;;;;;;;;;4976966;28;19914;-30
2023/01/28 01:08:54;;;;;;;;;;;;;;;;;;4975909;28;19918;-25
2023/01/28 01:11:20;;;;;;;;;;;;;;;;;;4976920;28;20001;-27
2023/01/28 01:13:46;;;;;;;;;;;;;;;;;;4976812;28;20007;-25
2023/01/28 01:16:12;;;;;;;;;;;;;;;;;;4975926;28;20238;-26
2023/01/28 01:18:41;;;;;;;;;;;;;;;;;;4976777;28;20361;-24
2023/01/28 01:21:07;;;;;;;;;;;;;;;;;;4976735;28;19968;-26
2023/01/28 01:23:33;;;;;;;;;;;;;;;;;;4975628;28;19914;-30
2023/01/28 01:25:59;;;;;;;;;;;;;;;;;;4976923;28;19922;-25
2023/01/28 01:28:25;;;;;;;;;;;;;;;;;;4976955;28;20329;-27
2023/01/28 01:30:51;;;;;;;;;;;;;;;;;;4976409;28;19917;-27
2023/01/28 01:33:17;;;;;;;;;;;;;;;;;;4976215;28;20253;-27
2023/01/28 01:35:43;;;;;;;;;;;;;;;;;;4976474;28;19918;-24
2023/01/28 01:38:09;;;;;;;;;;;;;;;;;;4976680;28;19921;-28
2023/01/28 01:40:35;;;;;;;;;;;;;;;;;;4976383;28;20377;-25
2023/01/28 01:43:01;;;;;;;;;;;;;;;;;;4976563;28;19965;-25
2023/01/28 01:45:27;;;;;;;;;;;;;;;;;;4976583;28;20417;-27
2023/01/28 01:47:53;;;;;;;;;;;;;;;;;;4976272;28;19965;-25
2023/01/28 01:50:19;;;;;;;;;;;;;;;;;;4976270;28;19980;-28
2023/01/28 01:52:45;;;;;;;;;;;;;;;;;;4976234;28;19910;-28
2023/01/28 01:55:12;;;;;;;;;;;;;;;;;;4976181;28;19922;-27
2023/01/28 01:57:38;;;;;;;;;;;;;;;;;;4976415;28;19910;-29
2023/01/28 02:00:05;;;;;;;;;;;;;;;;;;4976367;28;19948;-26
2023/01/28 02:02:31;;;;;;;;;;;;;;;;;;4976316;28;20316;-24
2023/01/28 02:04:57;;;;;;;;;;;;;;;;;;4975931;28;20005;-27
2023/01/28 02:07:23;;;;;;;;;;;;;;;;;;4976175;28;20257;-25
2023/01/28 02:09:49;;;;;;;;;;;;;;;;;;4976195;28;19984;-27
2023/01/28 02:12:15;;;;;;;;;;;;;;;;;;4974986;28;20277;-25
2023/01/28 02:14:41;;;;;;;;;;;;;;;;;;4975959;28;20330;-28
2023/01/28 02:17:07;;;;;;;;;;;;;;;;;;4976247;28;20365;-26
2023/01/28 02:19:33;;;;;;;;;;;;;;;;;;4975921;28;20012;-29
2023/01/28 02:21:59;;;;;;;;;;;;;;;;;;4975815;28;19921;-29
2023/01/28 02:24:25;;;;;;;;;;;;;;;;;;4976415;28;20421;-30
2023/01/28 02:26:51;;;;;;;;;;;;;;;;;;4975773;28;19976;-30
2023/01/28 02:29:17;;;;;;;;;;;;;;;;;;4976113;28;19914;-28
2023/01/28 02:31:43;;;;;;;;;;;;;;;;;;4976004;28;19990;-29
2023/01/28 02:34:09;;;;;;;;;;;;;;;;;;4975770;28;20005;-28
2023/01/28 02:36:35;;;;;;;;;;;;;;;;;;4975771;28;19919;-26
2023/01/28 02:39:01;;;;;;;;;;;;;;;;;;4976410;28;19922;-27
2023/01/28 02:41:27;;;;;;;;;;;;;;;;;;4975668;28;20250;-25
2023/01/28 02:43:53;;;;;;;;;;;;;;;;;;4978146;28;19910;-27
2023/01/28 02:49:03;;;;;;;;;;;;;;;;;;4979573;28;19928;-27
2023/01/28 02:51:29;;;;;;;;;;;;;;;;;;4979549;28;19978;-28
2023/01/28 02:53:55;;;;;;;;;;;;;;;;;;4979404;28;19914;-28
2023/01/28 02:56:23;;;;;;;;;;;;;;;;;;4979464;28;20025;-27
2023/01/28 02:58:49;;;;;;;;;;;;;;;;;;4979275;28;20005;-27
2023/01/28 03:01:15;;;;;;;;;;;;;;;;;;4979362;28;19964;-25
2023/01/28 03:03:41;;;;;;;;;;;;;;;;;;4979239;28;20273;-25
2023/01/28 03:06:07;;;;;;;;;;;;;;;;;;4979276;28;20365;-26
2023/01/28 03:38:47;;;;;;;;;;;;;;;;;;4978786;28;19988;-27
2023/01/28 03:41:13;;;;;;;;;;;;;;;;;;4977721;28;19914;-27
2023/01/28 03:43:40;;;;;;;;;;;;;;;;;;4978502;28;19914;-27
2023/01/28 03:46:06;;;;;;;;;;;;;;;;;;4978517;28;20001;-26
2023/01/28 03:48:32;;;;;;;;;;;;;;;;;;4978725;28;20018;-28
2023/01/28 03:50:59;;;;;;;;;;;;;;;;;;4978472;28;20358;-25
2023/01/28 03:53:25;;;;;;;;;;;;;;;;;;4978315;28;19910;-26
2023/01/28 03:55:51;;;;;;;;;;;;;;;;;;4977645;28;20064;-30
2023/01/28 03:58:17;;;;;;;;;;;;;;;;;;4978624;28;19914;-27
2023/01/28 04:00:43;;;;;;;;;;;;;;;;;;4978273;28;19925;-28
2023/01/28 04:03:15;;;;;;;;;;;;;;;;;;4978104;28;20417;-29
2023/01/28 04:05:41;;;;;;;;;;;;;;;;;;4978196;28;19937;-26
2023/01/28 04:08:07;;;;;;;;;;;;;;;;;;4978120;28;19961;-26
2023/01/28 04:10:33;;;;;;;;;;;;;;;;;;4978407;28;19928;-27
2023/01/28 04:12:59;;;;;;;;;;;;;;;;;;4978016;28;19914;-27
2023/01/28 04:15:25;;;;;;;;;;;;;;;;;;4978027;28;19910;-25
2023/01/28 04:17:51;;;;;;;;;;;;;;;;;;4978207;28;19925;-27
2023/01/28 04:20:17;;;;;;;;;;;;;;;;;;4977898;28;19922;-24
2023/01/28 04:22:43;;;;;;;;;;;;;;;;;;4977820;28;19929;-24
2023/01/28 04:25:09;;;;;;;;;;;;;;;;;;4978109;28;20285;-27
2023/01/28 04:27:35;;;;;;;;;;;;;;;;;;4978055;28;19914;-26
2023/01/28 04:30:01;;;;;;;;;;;;;;;;;;4977786;28;20270;-25
2023/01/28 04:32:27;;;;;;;;;;;;;;;;;;4977879;28;19914;-30
2023/01/28 04:34:53;;;;;;;;;;;;;;;;;;4977904;28;19918;-25
2023/01/28 04:37:19;;;;;;;;;;;;;;;;;;4977817;28;20231;-29
2023/01/28 04:39:45;;;;;;;;;;;;;;;;;;4977797;28;19980;-23
2023/01/28 04:42:11;;;;;;;;;;;;;;;;;;4977421;28;20421;-27
2023/01/28 04:44:37;;;;;;;;;;;;;;;;;;4977327;28;19918;-29
2023/01/28 04:47:03;;;;;;;;;;;;;;;;;;4977740;28;19929;-24
2023/01/28 04:49:29;;;;;;;;;;;;;;;;;;4977379;28;19914;-28
2023/01/28 04:51:55;;;;;;;;;;;;;;;;;;4977149;28;20354;-27
2023/01/28 04:54:21;;;;;;;;;;;;;;;;;;4976192;28;19977;-25
2023/01/28 04:56:47;;;;;;;;;;;;;;;;;;4977152;28;19914;-30
2023/01/28 04:59:13;;;;;;;;;;;;;;;;;;4977382;28;19922;-29
2023/01/28 05:01:39;;;;;;;;;;;;;;;;;;4977025;28;19965;-27
2023/01/28 05:04:06;;;;;;;;;;;;;;;;;;4977000;28;19929;-25
2023/01/28 05:06:32;;;;;;;;;;;;;;;;;;4975967;28;19914;-28
2023/01/28 05:08:58;;;;;;;;;;;;;;;;;;4977345;28;19976;-28
2023/01/28 05:11:24;;;;;;;;;;;;;;;;;;4977964;28;19914;-26
2023/01/28 05:13:50;;;;;;;;;;;;;;;;;;4976952;28;20230;-25
2023/01/28 05:16:16;;;;;;;;;;;;;;;;;;4976539;28;19914;-28
2023/01/28 05:18:42;;;;;;;;;;;;;;;;;;4976959;28;19975;-28
2023/01/28 05:21:08;;;;;;;;;;;;;;;;;;4976710;28;19914;-27
2023/01/28 05:23:34;;;;;;;;;;;;;;;;;;4976882;28;19921;-29
2023/01/28 05:26:00;;;;;;;;;;;;;;;;;;4976524;28;20353;-26
2023/01/28 05:28:26;;;;;;;;;;;;;;;;;;4976535;28;19921;-25
2023/01/28 05:30:52;;;;;;;;;;;;;;;;;;4976587;28;19969;-26
2023/01/28 05:33:18;;;;;;;;;;;;;;;;;;4976442;28;20293;-31
2023/01/28 05:35:44;;;;;;;;;;;;;;;;;;4976435;28;20246;-27
2023/01/28 05:38:10;;;;;;;;;;;;;;;;;;4976517;28;19914;-29
2023/01/28 05:40:36;;;;;;;;;;;;;;;;;;4976475;28;20353;-28
2023/01/28 05:43:02;;;;;;;;;;;;;;;;;;4975447;28;20395;-28
2023/01/28 05:45:28;;;;;;;;;;;;;;;;;;4976585;28;19964;-29
2023/01/28 05:47:54;;;;;;;;;;;;;;;;;;4975309;28;19949;-25
2023/01/28 05:50:20;;;;;;;;;;;;;;;;;;4976326;28;19914;-28
2023/01/28 05:52:46;;;;;;;;;;;;;;;;;;4976193;28;19910;-27
2023/01/28 05:55:12;;;;;;;;;;;;;;;;;;4976515;28;19914;-29
2023/01/28 05:57:38;;;;;;;;;;;;;;;;;;4976312;28;19918;-25
2023/01/28 06:00:04;;;;;;;;;;;;;;;;;;4976374;28;19921;-29
2023/01/28 06:02:30;;;;;;;;;;;;;;;;;;4975031;28;19914;-29
2023/01/28 06:04:56;;;;;;;;;;;;;;;;;;4975873;28;20425;-28
2023/01/28 06:07:22;;;;;;;;;;;;;;;;;;4975958;28;20008;-28
2023/01/28 06:09:48;;;;;;;;;;;;;;;;;;4976231;28;19940;-26
2023/01/28 06:12:14;;;;;;;;;;;;;;;;;;4976263;28;19918;-28
2023/01/28 06:14:40;;;;;;;;;;;;;;;;;;4976231;28;20381;-28
2023/01/28 06:17:06;;;;;;;;;;;;;;;;;;4975940;28;19910;-28
2023/01/28 06:19:32;;;;;;;;;;;;;;;;;;4975659;28;19929;-27
2023/01/28 06:21:58;;;;;;;;;;;;;;;;;;4975909;28;20357;-26
2023/01/28 06:24:24;;;;;;;;;;;;;;;;;;4976106;28;19944;-32
2023/01/28 06:26:50;;;;;;;;;;;;;;;;;;4975875;28;20369;-25
2023/01/28 06:29:16;;;;;;;;;;;;;;;;;;4975667;28;20337;-27
2023/01/28 06:31:42;;;;;;;;;;;;;;;;;;4974824;28;19910;-26
2023/01/28 06:34:08;;;;;;;;;;;;;;;;;;4975723;28;20349;-26
2023/01/28 06:36:34;;;;;;;;;;;;;;;;;;4976057;28;19965;-29
2023/01/28 06:39:00;;;;;;;;;;;;;;;;;;4975882;28;19921;-26
2023/01/28 06:41:26;;;;;;;;;;;;;;;;;;4975880;28;19914;-30
2023/01/28 06:43:52;;;;;;;;;;;;;;;;;;4975781;28;20350;-26
2023/01/28 06:46:18;;;;;;;;;;;;;;;;;;4975780;28;20330;-32
2023/01/28 06:48:44;;;;;;;;;;;;;;;;;;4975925;28;19977;-29
2023/01/28 06:51:10;;;;;;;;;;;;;;;;;;4975883;28;19985;-27
2023/01/28 06:53:36;;;;;;;;;;;;;;;;;;4974623;28;20313;-28
2023/01/28 06:56:02;;;;;;;;;;;;;;;;;;4975592;28;20325;-28
2023/01/28 06:58:28;;;;;;;;;;;;;;;;;;4975102;28;20005;-30
2023/01/28 07:00:54;;;;;;;;;;;;;;;;;;4975503;28;19966;-26
2023/01/28 07:03:20;;;;;;;;;;;;;;;;;;4974894;28;19972;-30
2023/01/28 07:05:46;;;;;;;;;;;;;;;;;;4975361;28;19997;-29
2023/01/28 07:08:12;;;;;;;;;;;;;;;;;;4973923;28;20056;-25
2023/01/28 07:10:38;;;;;;;;;;;;;;;;;;4975079;28;20119;-28
2023/01/28 07:13:04;;;;;;;;;;;;;;;;;;4975109;28;19965;-28
2023/01/28 07:15:30;;;;;;;;;;;;;;;;;;4975235;28;19977;-28
2023/01/28 07:17:56;;;;;;;;;;;;;;;;;;4975008;28;20005;-30
2023/01/28 07:20:22;;;;;;;;;;;;;;;;;;4975419;28;20309;-32
2023/01/28 07:22:48;;;;;;;;;;;;;;;;;;4975277;28;19918;-28
2023/01/28 07:25:14;;;;;;;;;;;;;;;;;;4975333;28;19914;-25
2023/01/28 07:27:40;;;;;;;;;;;;;;;;;;4975512;28;19918;-29
2023/01/28 07:30:06;;;;;;;;;;;;;;;;;;4976583;28;19914;-34
2023/01/28 07:32:32;;;;;;;;;;;;;;;;;;4978747;28;19921;-29
2023/01/28 07:34:58;;;;;;;;;;;;;;;;;;4978726;28;20261;-26
2023/01/28 07:37:24;;;;;;;;;;;;;;;;;;4978954;28;19918;-28
2023/01/28 07:39:51;;;;;;;;;;;;;;;;;;4978643;28;19917;-28
2023/01/28 07:42:17;;;;;;;;;;;;;;;;;;4978552;28;19969;-31
2023/01/28 07:44:43;;;;;;;;;;;;;;;;;;4978774;28;19921;-25
2023/01/28 07:47:08;;;;;;;;;;;;;;;;;;4978675;28;20357;-29
2023/01/28 07:49:35;;;;;;;;;;;;;;;;;;4978473;28;19910;-29
2023/01/28 07:52:01;;;;;;;;;;;;;;;;;;4978412;28;19925;-29
2023/01/28 07:54:27;;;;;;;;;;;;;;;;;;4978667;28;19914;-28
2023/01/28 07:56:53;;;;;;;;;;;;;;;;;;4978560;28;19914;-30
2023/01/28 07:59:19;;;;;;;;;;;;;;;;;;4978592;28;19977;-30
2023/01/28 08:01:44;;;;;;;;;;;;;;;;;;4978195;28;19918;-28
2023/01/28 08:04:11;;;;;;;;;;;;;;;;;;4978029;28;20349;-25
2023/01/28 08:06:36;;;;;;;;;;;;;;;;;;4978147;28;19914;-28
2023/01/28 08:09:04;;;;;;;;;;;;;;;;;;4977108;28;19937;-30
2023/01/28 08:11:30;;;;;;;;;;;;;;;;;;4978090;28;19933;-26
2023/01/28 08:13:56;;;;;;;;;;;;;;;;;;4977975;28;20274;-27
2023/01/28 08:16:22;;;;;;;;;;;;;;;;;;4978003;28;20005;-26
2023/01/28 08:18:48;;;;;;;;;;;;;;;;;;4978229;28;19922;-29
2023/01/28 08:21:14;;;;;;;;;;;;;;;;;;4977980;28;19914;-28
2023/01/28 08:23:40;;;;;;;;;;;;;;;;;;4978053;28;20004;-32
2023/01/28 08:26:06;;;;;;;;;;;;;;;;;;4977871;28;20384;-33
2023/01/28 08:28:32;;;;;;;;;;;;;;;;;;4977734;28;20357;-28
2023/01/28 08:30:58;;;;;;;;;;;;;;;;;;4978033;28;19914;-29
2023/01/28 08:33:24;;;;;;;;;;;;;;;;;;4977649;28;19968;-28
2023/01/28 08:35:50;;;;;;;;;;;;;;;;;;4977972;28;19914;-26
2023/01/28 08:38:16;;;;;;;;;;;;;;;;;;4978084;28;20223;-28
2023/01/28 08:40:42;;;;;;;;;;;;;;;;;;4977279;28;19977;-25
2023/01/28 08:43:08;;;;;;;;;;;;;;;;;;4977494;28;19914;-24
2023/01/28 08:45:34;;;;;;;;;;;;;;;;;;4977550;28;19910;-25
2023/01/28 08:48:00;;;;;;;;;;;;;;;;;;4977580;28;20254;-28
2023/01/28 08:50:26;;;;;;;;;;;;;;;;;;4977376;28;19989;-31
2023/01/28 08:52:52;;;;;;;;;;;;;;;;;;4977289;28;19915;-25
2023/01/28 08:55:18;;;;;;;;;;;;;;;;;;4977262;28;19910;-32
2023/01/28 08:57:44;;;;;;;;;;;;;;;;;;4977132;28;20269;-26
2023/01/28 09:00:10;;;;;;;;;;;;;;;;;;4977159;28;20235;-27
2023/01/28 09:02:36;;;;;;;;;;;;;;;;;;4976013;28;19914;-32
2023/01/28 09:05:02;;;;;;;;;;;;;;;;;;4976774;28;20255;-24
2023/01/28 09:07:28;;;;;;;;;;;;;;;;;;4976982;28;19929;-26
2023/01/28 09:09:54;;;;;;;;;;;;;;;;;;4977058;28;19914;-26
2023/01/28 09:12:20;;;;;;;;;;;;;;;;;;4977130;28;19960;-27
2023/01/28 09:14:46;;;;;;;;;;;;;;;;;;4976968;28;20242;-27
2023/01/28 09:17:12;;;;;;;;;;;;;;;;;;4976889;28;20268;-31
2023/01/28 09:19:38;;;;;;;;;;;;;;;;;;4976822;28;20001;-32
2023/01/28 09:22:04;;;;;;;;;;;;;;;;;;4976680;28;19918;-27
2023/01/28 09:24:30;;;;;;;;;;;;;;;;;;4976770;28;19911;-27
2023/01/28 09:26:56;;;;;;;;;;;;;;;;;;4976921;28;20000;-30
2023/01/28 09:29:22;;;;;;;;;;;;;;;;;;4975184;28;20017;-25
2023/01/28 09:31:48;;;;;;;;;;;;;;;;;;4976157;28;19915;-30
2023/01/28 09:34:14;;;;;;;;;;;;;;;;;;4976385;28;19914;-30
2023/01/28 09:36:40;;;;;;;;;;;;;;;;;;4976451;28;19988;-26
2023/01/28 09:39:07;;;;;;;;;;;;;;;;;;4976366;28;20290;-29
2023/01/28 09:41:33;;;;;;;;;;;;;;;;;;4976348;28;20005;-29
2023/01/28 09:44:00;;;;;;;;;;;;;;;;;;4976169;28;20008;-27
2023/01/28 09:46:26;;;;;;;;;;;;;;;;;;4976254;28;19914;-29
2023/01/28 09:48:52;;;;;;;;;;;;;;;;;;4976022;28;20231;-30
2023/01/28 09:51:18;;;;;;;;;;;;;;;;;;4976588;28;19910;-27
2023/01/28 09:53:44;;;;;;;;;;;;;;;;;;4975263;28;19918;-28
2023/01/28 09:56:10;;;;;;;;;;;;;;;;;;4975788;28;19964;-27
2023/01/28 09:58:36;;;;;;;;;;;;;;;;;;4976032;28;20013;-28
2023/01/28 10:01:02;;;;;;;;;;;;;;;;;;4974716;28;19914;-28
2023/01/28 10:03:28;;;;;;;;;;;;;;;;;;4975497;28;19918;-29
2023/01/28 10:05:54;;;;;;;;;;;;;;;;;;4976093;28;19918;-26
2023/01/28 10:08:20;;;;;;;;;;;;;;;;;;4976270;28;19957;-29
2023/01/28 10:10:46;;;;;;;;;;;;;;;;;;4976507;28;19915;-29
2023/01/28 10:13:12;;;;;;;;;;;;;;;;;;4975917;28;19911;-28
2023/01/28 10:15:38;;;;;;;;;;;;;;;;;;4975914;28;19914;-29
2023/01/28 10:18:04;;;;;;;;;;;;;;;;;;4975944;28;19921;-29
2023/01/28 10:20:31;;;;;;;;;;;;;;;;;;4975941;28;19914;-27
2023/01/28 10:22:57;;;;;;;;;;;;;;;;;;4975833;28;19910;-31
2023/01/28 10:25:23;;;;;;;;;;;;;;;;;;4976127;28;19914;-29
2023/01/28 10:27:49;;;;;;;;;;;;;;;;;;4975841;28;19941;-31
2023/01/28 10:30:15;;;;;;;;;;;;;;;;;;4975802;28;20338;-25
2023/01/28 10:32:41;;;;;;;;;;;;;;;;;;4976021;28;19953;-25
2023/01/28 10:35:07;;;;;;;;;;;;;;;;;;4976034;28;19910;-32
2023/01/28 10:37:33;;;;;;;;;;;;;;;;;;4976073;28;20433;-31
2023/01/28 10:39:59;;;;;;;;;;;;;;;;;;4975752;28;20350;-33
2023/01/28 10:42:25;;;;;;;;;;;;;;;;;;4975668;28;19921;-32
2023/01/28 10:44:51;;;;;;;;;;;;;;;;;;4975802;28;19910;-24
2023/01/28 10:47:17;;;;;;;;;;;;;;;;;;4975665;28;19968;-31
2023/01/28 10:49:43;;;;;;;;;;;;;;;;;;4975930;28;20005;-31
2023/01/28 10:52:09;;;;;;;;;;;;;;;;;;4975905;28;19922;-30
2023/01/28 10:54:35;;;;;;;;;;;;;;;;;;4975617;28;20361;-28
2023/01/28 10:57:01;;;;;;;;;;;;;;;;;;4975798;28;19967;-28
2023/01/28 10:59:28;;;;;;;;;;;;;;;;;;4975474;28;19953;-33
2023/01/28 11:01:53;;;;;;;;;;;;;;;;;;4975453;28;20424;-28
2023/01/28 11:04:20;;;;;;;;;;;;;;;;;;4976825;28;19922;-28
2023/01/28 11:06:46;;;;;;;;;;;;;;;;;;4979946;28;19915;-30
2023/01/28 11:09:12;;;;;;;;;;;;;;;;;;4979186;28;20338;-30
2023/01/28 11:11:38;;;;;;;;;;;;;;;;;;4979086;28;19910;-26
2023/01/28 11:14:04;;;;;;;;;;;;;;;;;;4979272;28;19972;-26
2023/01/28 11:16:29;;;;;;;;;;;;;;;;;;4979124;28;19914;-27
2023/01/28 11:18:55;;;;;;;;;;;;;;;;;;4978783;28;19914;-31
2023/01/28 11:21:21;;;;;;;;;;;;;;;;;;4978728;28;20243;-27
2023/01/28 11:23:47;;;;;;;;;;;;;;;;;;4978761;28;19918;-28
2023/01/28 11:26:13;;;;;;;;;;;;;;;;;;4978858;28;19921;-28
2023/01/28 11:28:40;;;;;;;;;;;;;;;;;;4978975;28;19928;-28
2023/01/28 11:31:06;;;;;;;;;;;;;;;;;;4979040;28;19914;-28
2023/01/28 11:33:32;;;;;;;;;;;;;;;;;;4978615;28;19910;-28
2023/01/28 11:35:57;;;;;;;;;;;;;;;;;;4978939;28;19997;-30
2023/01/28 11:38:23;;;;;;;;;;;;;;;;;;4979140;28;19953;-31
2023/01/28 11:40:50;;;;;;;;;;;;;;;;;;4978924;28;19977;-32
2023/01/28 11:43:16;;;;;;;;;;;;;;;;;;4978447;28;19949;-32
2023/01/28 11:45:42;;;;;;;;;;;;;;;;;;4978883;28;19957;-30
2023/01/28 11:48:08;;;;;;;;;;;;;;;;;;4978512;28;20294;-27
2023/01/28 11:50:34;;;;;;;;;;;;;;;;;;4978667;28;19918;-35
2023/01/28 11:53:00;;;;;;;;;;;;;;;;;;4978441;28;19914;-30
2023/01/28 11:55:26;;;;;;;;;;;;;;;;;;4978444;28;19910;-30
2023/01/28 11:57:52;;;;;;;;;;;;;;;;;;4978321;28;19997;-28
2023/01/28 12:00:18;;;;;;;;;;;;;;;;;;4978373;28;19961;-29
2023/01/28 12:02:44;;;;;;;;;;;;;;;;;;4978473;28;19929;-29
2023/01/28 12:05:10;;;;;;;;;;;;;;;;;;4978161;28;19968;-25
2023/01/28 12:07:36;;;;;;;;;;;;;;;;;;4978191;28;19925;-25
2023/01/28 12:10:02;;;;;;;;;;;;;;;;;;4978232;28;19981;-26
2023/01/28 12:12:28;;;;;;;;;;;;;;;;;;4978055;28;19914;-30
2023/01/28 12:14:54;;;;;;;;;;;;;;;;;;4978109;28;19945;-28
2023/01/28 12:17:20;;;;;;;;;;;;;;;;;;4977726;28;19961;-32
2023/01/28 12:19:46;;;;;;;;;;;;;;;;;;4977976;28;20317;-25
2023/01/28 12:22:12;;;;;;;;;;;;;;;;;;4977928;28;19976;-26
2023/01/28 12:24:38;;;;;;;;;;;;;;;;;;4978036;28;19910;-32
2023/01/28 12:27:04;;;;;;;;;;;;;;;;;;4977842;28;20004;-27
2023/01/28 12:29:31;;;;;;;;;;;;;;;;;;4977780;28;20020;-27
2023/01/28 12:31:57;;;;;;;;;;;;;;;;;;4978481;28;19960;-33
2023/01/28 12:34:23;;;;;;;;;;;;;;;;;;4977720;28;20013;-28
2023/01/28 12:36:49;;;;;;;;;;;;;;;;;;4977710;28;19921;-30
2023/01/28 12:39:14;;;;;;;;;;;;;;;;;;4977697;28;19910;-30
2023/01/28 12:41:41;;;;;;;;;;;;;;;;;;4977714;28;19965;-25
2023/01/28 12:44:07;;;;;;;;;;;;;;;;;;4976566;28;19914;-28
2023/01/28 12:46:33;;;;;;;;;;;;;;;;;;4977563;28;19914;-27
2023/01/28 12:48:59;;;;;;;;;;;;;;;;;;4977647;28;19984;-27
2023/01/28 12:51:25;;;;;;;;;;;;;;;;;;4977450;28;19926;-26
2023/01/28 12:53:51;;;;;;;;;;;;;;;;;;4977345;28;19922;-25
2023/01/28 12:56:17;;;;;;;;;;;;;;;;;;4977419;28;20336;-25
2023/01/28 12:58:43;;;;;;;;;;;;;;;;;;4977552;28;20093;-30
2023/01/28 13:01:09;;;;;;;;;;;;;;;;;;4977358;28;20346;-28
2023/01/28 13:03:35;;;;;;;;;;;;;;;;;;4977035;28;19922;-29
2023/01/28 13:06:01;;;;;;;;;;;;;;;;;;4977474;28;19918;-28
2023/01/28 13:08:27;;;;;;;;;;;;;;;;;;4977027;28;19922;-30
2023/01/28 13:10:53;;;;;;;;;;;;;;;;;;4977122;28;20306;-32
2023/01/28 13:13:19;;;;;;;;;;;;;;;;;;4976275;28;20400;-31
2023/01/28 13:15:45;;;;;;;;;;;;;;;;;;4977040;28;20388;-28
2023/01/28 13:18:11;;;;;;;;;;;;;;;;;;4977227;28;19914;-27
2023/01/28 13:20:37;;;;;;;;;;;;;;;;;;4977200;28;20334;-30
2023/01/28 13:23:03;;;;;;;;;;;;;;;;;;4976964;28;20001;-28
2023/01/28 13:25:29;;;;;;;;;;;;;;;;;;4976859;28;20269;-27
2023/01/28 13:27:55;;;;;;;;;;;;;;;;;;4975798;28;19914;-25
2023/01/28 13:30:21;;;;;;;;;;;;;;;;;;4977014;28;19965;-25
2023/01/28 13:32:47;;;;;;;;;;;;;;;;;;4976652;28;19917;-27
2023/01/28 13:35:13;;;;;;;;;;;;;;;;;;4976669;28;20328;-25
2023/01/28 13:37:39;;;;;;;;;;;;;;;;;;4976887;28;19920;-28
2023/01/28 13:40:05;;;;;;;;;;;;;;;;;;4977274;28;20358;-30
2023/01/28 13:42:31;;;;;;;;;;;;;;;;;;4976479;28;19910;-28
2023/01/28 13:44:57;;;;;;;;;;;;;;;;;;4976498;28;19921;-28
2023/01/28 13:47:23;;;;;;;;;;;;;;;;;;4976361;28;20353;-31
2023/01/28 13:49:49;;;;;;;;;;;;;;;;;;4976684;28;19914;-30
2023/01/28 13:52:15;;;;;;;;;;;;;;;;;;4976317;28;19989;-30
2023/01/28 13:54:41;;;;;;;;;;;;;;;;;;4976352;28;19924;-31
2023/01/28 13:57:07;;;;;;;;;;;;;;;;;;4976343;28;19914;-28
2023/01/28 13:59:33;;;;;;;;;;;;;;;;;;4976321;28;19921;-28
2023/01/28 14:01:59;;;;;;;;;;;;;;;;;;4976361;28;20013;-28
2023/01/28 14:04:25;;;;;;;;;;;;;;;;;;4976059;28;20372;-34
2023/01/28 14:06:51;;;;;;;;;;;;;;;;;;4976444;28;19924;-31
2023/01/28 14:09:17;;;;;;;;;;;;;;;;;;4976109;28;20009;-27
2023/01/28 14:11:43;;;;;;;;;;;;;;;;;;4976063;28;19918;-29
2023/01/28 14:14:09;;;;;;;;;;;;;;;;;;4975039;28;19920;-26
2023/01/28 14:16:35;;;;;;;;;;;;;;;;;;4976310;28;19953;-29
2023/01/28 14:19:01;;;;;;;;;;;;;;;;;;4976090;28;19910;-27
2023/01/28 14:21:27;;;;;;;;;;;;;;;;;;4975956;28;19925;-27
2023/01/28 14:23:53;;;;;;;;;;;;;;;;;;4975897;28;20309;-32
2023/01/28 14:26:19;;;;;;;;;;;;;;;;;;4975865;28;19922;-28
2023/01/28 14:28:45;;;;;;;;;;;;;;;;;;4976124;28;19924;-29
2023/01/28 14:31:11;;;;;;;;;;;;;;;;;;4976024;28;19917;-30
2023/01/28 14:33:37;;;;;;;;;;;;;;;;;;4975828;28;19914;-31
2023/01/28 14:36:03;;;;;;;;;;;;;;;;;;4976180;28;19910;-31
2023/01/28 14:38:29;;;;;;;;;;;;;;;;;;4976113;28;20004;-25
2023/01/28 14:40:55;;;;;;;;;;;;;;;;;;4979843;28;19914;-28
2023/01/28 14:43:21;;;;;;;;;;;;;;;;;;4979780;28;20234;-27
2023/01/28 14:45:47;;;;;;;;;;;;;;;;;;4979951;28;20252;-26
2023/01/28 14:48:13;;;;;;;;;;;;;;;;;;4979870;28;20353;-30
2023/01/28 14:50:39;;;;;;;;;;;;;;;;;;4979988;28;19945;-29
2023/01/28 14:53:05;;;;;;;;;;;;;;;;;;4979649;28;20341;-26
2023/01/28 14:55:31;;;;;;;;;;;;;;;;;;4979937;28;19976;-28
2023/01/28 14:57:58;;;;;;;;;;;;;;;;;;4978576;28;19914;-26
2023/01/28 15:00:24;;;;;;;;;;;;;;;;;;4979472;28;19973;-28
2023/01/28 15:02:50;;;;;;;;;;;;;;;;;;4979395;28;19914;-28
2023/01/28 15:05:16;;;;;;;;;;;;;;;;;;4979271;28;20349;-25
2023/01/28 15:07:42;;;;;;;;;;;;;;;;;;4979354;28;19929;-26
2023/01/28 15:10:08;;;;;;;;;;;;;;;;;;4979378;28;19910;-31
2023/01/28 15:12:34;;;;;;;;;;;;;;;;;;4980182;28;19918;-29
2023/01/28 15:15:00;;;;;;;;;;;;;;;;;;4979242;28;20073;-32
2023/01/28 15:17:26;;;;;;;;;;;;;;;;;;4979397;28;20353;-25
2023/01/28 15:19:52;;;;;;;;;;;;;;;;;;4979129;28;19917;-29
2023/01/28 15:22:18;;;;;;;;;;;;;;;;;;4979031;28;19981;-25
2023/01/28 15:24:44;;;;;;;;;;;;;;;;;;4979054;28;19945;-27
2023/01/28 15:27:10;;;;;;;;;;;;;;;;;;4979010;28;19918;-25
2023/01/28 15:29:36;;;;;;;;;;;;;;;;;;4979187;28;19957;-29
2023/01/28 15:32:02;;;;;;;;;;;;;;;;;;4979108;28;19914;-32
2023/01/28 15:34:31;;;;;;;;;;;;;;;;;;4978923;28;19965;-27
2023/01/28 15:36:57;;;;;;;;;;;;;;;;;;4978875;28;19914;-26
2023/01/28 15:39:23;;;;;;;;;;;;;;;;;;4979087;28;19910;-25
2023/01/28 15:41:49;;;;;;;;;;;;;;;;;;4978978;28;19962;-31
2023/01/28 15:44:15;;;;;;;;;;;;;;;;;;4978988;28;19950;-26
2023/01/28 15:46:41;;;;;;;;;;;;;;;;;;4978705;28;19918;-29
2023/01/28 15:49:07;;;;;;;;;;;;;;;;;;4978837;28;19922;-29
2023/01/28 15:51:33;;;;;;;;;;;;;;;;;;4977646;28;20238;-26
2023/01/28 15:53:59;;;;;;;;;;;;;;;;;;4978438;28;19927;-28
2023/01/28 15:56:26;;;;;;;;;;;;;;;;;;4978780;28;19921;-26
2023/01/28 15:58:52;;;;;;;;;;;;;;;;;;4978451;28;19914;-28
2023/01/28 16:01:18;;;;;;;;;;;;;;;;;;4978387;28;19910;-29
2023/01/28 16:03:44;;;;;;;;;;;;;;;;;;4978089;28;19926;-29
2023/01/28 16:06:10;;;;;;;;;;;;;;;;;;4978612;28;19921;-30
2023/01/28 16:08:36;;;;;;;;;;;;;;;;;;4978218;28;19918;-28
2023/01/28 16:11:02;;;;;;;;;;;;;;;;;;4978767;28;19977;-27
2023/01/28 16:13:28;;;;;;;;;;;;;;;;;;4978150;28;19918;-29
2023/01/28 16:15:54;;;;;;;;;;;;;;;;;;4978199;28;20001;-30
2023/01/28 16:18:20;;;;;;;;;;;;;;;;;;4978107;28;19914;-30
2023/01/28 16:20:46;;;;;;;;;;;;;;;;;;4978053;28;19924;-29
2023/01/28 16:23:12;;;;;;;;;;;;;;;;;;4977008;28;19910;-29
2023/01/28 16:25:40;;;;;;;;;;;;;;;;;;4977996;28;20342;-32
2023/01/28 16:28:06;;;;;;;;;;;;;;;;;;4977835;28;19925;-32
2023/01/28 16:30:32;;;;;;;;;;;;;;;;;;4978142;28;19914;-27
2023/01/28 16:32:59;;;;;;;;;;;;;;;;;;4977775;28;19917;-30
2023/01/28 16:35:25;;;;;;;;;;;;;;;;;;4976818;28;20243;-31
2023/01/28 16:37:51;;;;;;;;;;;;;;;;;;4978016;28;20001;-32
2023/01/28 16:40:17;;;;;;;;;;;;;;;;;;4977689;28;19914;-29
2023/01/28 16:42:47;;;;;;;;;;;;;;;;;;4977967;28;20004;-29
2023/01/28 16:45:13;;;;;;;;;;;;;;;;;;4977919;28;19976;-26
2023/01/28 16:47:39;;;;;;;;;;;;;;;;;;4977486;28;20341;-29
2023/01/28 16:50:05;;;;;;;;;;;;;;;;;;4977794;28;19945;-25
2023/01/28 16:52:31;;;;;;;;;;;;;;;;;;4977421;28;20334;-25
2023/01/28 16:54:57;;;;;;;;;;;;;;;;;;4977490;28;20339;-28
2023/01/28 16:57:23;;;;;;;;;;;;;;;;;;4977433;28;20234;-27
2023/01/28 16:59:49;;;;;;;;;;;;;;;;;;4977330;28;19964;-25
2023/01/28 17:02:15;;;;;;;;;;;;;;;;;;4977311;28;19977;-26
2023/01/28 17:04:41;;;;;;;;;;;;;;;;;;4977038;28;19922;-26
2023/01/28 17:07:07;;;;;;;;;;;;;;;;;;4977456;28;19914;-27
2023/01/28 17:09:33;;;;;;;;;;;;;;;;;;4977613;28;19918;-27